Time;durP1;ratioP1;P1;durP2;ratioP2;P2;SDS_P1;SDS_P2;PMS_P1;PMS_P2;Temp;Humidity;BMP_temperature;BMP_pressure;BME280_temperature;BME280_humidity;BME280_pressure;Samples;Min_cycle;Max_cycle;Signal;HPM_P1;HPM_P2
2022/11/01 00:00:48;;;;;;;0.68;0.40;;;;;;;;;;5112504;28;20043;-68
2022/11/01 00:03:19;;;;;;;0.50;0.22;;;;;;;;;;5112413;28;20044;-68
2022/11/01 00:05:49;;;;;;;0.40;0.20;;;;;;;;;;5093606;28;20059;-68
2022/11/01 00:08:19;;;;;;;1.27;0.50;;;;;;;;;;5112161;28;20043;-69
2022/11/01 00:10:49;;;;;;;0.30;0.20;;;;;;;;;;5076496;28;20059;-68
2022/11/01 00:13:18;;;;;;;0.45;0.25;;;;;;;;;;5111274;28;20059;-67
2022/11/01 00:15:49;;;;;;;0.10;0.10;;;;;;;;;;5111198;28;20054;-68
2022/11/01 00:18:19;;;;;;;0.82;0.30;;;;;;;;;;5112418;28;20058;-67
2022/11/01 00:20:49;;;;;;;1.77;0.22;;;;;;;;;;5109484;28;20043;-68
2022/11/01 00:23:19;;;;;;;1.30;0.40;;;;;;;;;;5109530;28;20062;-68
2022/11/01 00:25:49;;;;;;;1.10;0.90;;;;;;;;;;5109670;28;20066;-67
2022/11/01 00:28:19;;;;;;;2.00;0.40;;;;;;;;;;5092896;28;20067;-68
2022/11/01 00:30:54;;;;;;;0.73;0.35;;;;;;;;;;5109623;28;20071;-67
2022/11/01 00:33:25;;;;;;;0.93;0.20;;;;;;;;;;5109343;28;20563;-67
2022/11/01 00:36:00;;;;;;;0.30;0.17;;;;;;;;;;5109818;28;20095;-68
2022/11/01 00:38:30;;;;;;;0.35;0.30;;;;;;;;;;5109479;28;20043;-67
2022/11/01 00:41:02;;;;;;;1.40;0.68;;;;;;;;;;5076065;28;20499;-68
2022/11/01 00:43:34;;;;;;;0.50;0.38;;;;;;;;;;5088597;28;20051;-68
2022/11/01 00:46:04;;;;;;;0.90;0.60;;;;;;;;;;5088832;28;20056;-70
2022/11/01 00:48:34;;;;;;;0.45;0.20;;;;;;;;;;5088856;28;20056;-71
2022/11/01 00:51:04;;;;;;;0.35;0.35;;;;;;;;;;5069666;28;20411;-69
2022/11/01 00:53:35;;;;;;;0.95;0.38;;;;;;;;;;5068773;28;20423;-70
2022/11/01 00:56:06;;;;;;;1.90;1.20;;;;;;;;;;5051928;28;20059;-71
2022/11/01 00:58:36;;;;;;;0.45;0.30;;;;;;;;;;5068634;28;20056;-71
2022/11/01 01:01:06;;;;;;;0.60;0.30;;;;;;;;;;5068787;28;20057;-70
2022/11/01 01:03:37;;;;;;;1.20;0.30;;;;;;;;;;5068637;28;20044;-69
2022/11/01 01:06:06;;;;;;;0.25;0.20;;;;;;;;;;5068830;28;20087;-69
2022/11/01 01:08:37;;;;;;;0.63;0.30;;;;;;;;;;5069772;28;20167;-69
2022/11/01 01:11:06;;;;;;;0.30;0.30;;;;;;;;;;5072930;28;20056;-69
2022/11/01 01:13:36;;;;;;;0.60;0.25;;;;;;;;;;5072440;28;20045;-70
2022/11/01 01:16:09;;;;;;;1.35;0.40;;;;;;;;;;5072600;28;20056;-69
2022/11/01 01:18:40;;;;;;;0.20;0.20;;;;;;;;;;5071825;28;20400;-71
2022/11/01 01:21:10;;;;;;;0.40;0.20;;;;;;;;;;5069889;28;20051;-69
2022/11/01 01:23:40;;;;;;;0.70;0.30;;;;;;;;;;5078904;28;20059;-69
2022/11/01 01:26:10;;;;;;;0.28;0.20;;;;;;;;;;5079739;28;20059;-70
2022/11/01 01:28:41;;;;;;;0.40;0.20;;;;;;;;;;5112971;28;20550;-72
2022/11/01 01:31:13;;;;;;;0.57;0.40;;;;;;;;;;5112877;28;20060;-71
2022/11/01 01:33:43;;;;;;;0.43;0.43;;;;;;;;;;5072293;28;20056;-72
2022/11/01 01:36:13;;;;;;;0.95;0.20;;;;;;;;;;5051878;28;20068;-71
2022/11/01 01:38:43;;;;;;;0.10;0.10;;;;;;;;;;5052087;28;20061;-73
2022/11/01 01:44:02;;;;;;;0.85;0.70;;;;;;;;;;5071578;28;20423;-74
2022/11/01 01:46:32;;;;;;;0.50;0.28;;;;;;;;;;5071791;28;20067;-72
2022/11/01 01:49:02;;;;;;;0.20;0.20;;;;;;;;;;5071706;28;20064;-73
2022/11/01 01:51:32;;;;;;;0.90;0.35;;;;;;;;;;5071789;28;20119;-71
2022/11/01 01:54:02;;;;;;;1.10;0.30;;;;;;;;;;5071706;28;20484;-72
2022/11/01 01:56:36;;;;;;;0.10;0.10;;;;;;;;;;5051424;28;20045;-72
2022/11/01 01:59:10;;;;;;;0.30;0.22;;;;;;;;;;5051383;28;20064;-70
2022/11/01 02:01:40;;;;;;;0.40;0.40;;;;;;;;;;5031311;28;20083;-70
2022/11/01 02:04:28;;;;;;;0.17;0.17;;;;;;;;;;4991801;28;20054;-70
2022/11/01 02:07:00;;;;;;;0.88;0.52;;;;;;;;;;4943876;28;20054;-70
2022/11/01 02:09:32;;;;;;;1.20;1.00;;;;;;;;;;4959720;28;20059;-70
2022/11/01 02:12:02;;;;;;;2.53;1.15;;;;;;;;;;4992200;28;20051;-71
2022/11/01 02:14:32;;;;;;;1.63;1.52;;;;;;;;;;4991903;28;20079;-70
2022/11/01 02:17:21;;;;;;;0.22;0.20;;;;;;;;;;4984851;28;20047;-70
2022/11/01 02:20:41;;;;;;;0.60;0.32;;;;;;;;;;4952021;28;20067;-69
2022/11/01 02:23:20;;;;;;;0.50;0.30;;;;;;;;;;4972103;28;20070;-69
2022/11/01 02:26:13;;;;;;;0.60;0.20;;;;;;;;;;4972453;28;20430;-68
2022/11/01 02:28:51;;;;;;;0.50;0.20;;;;;;;;;;4952973;29;20055;-68
2022/11/01 02:32:07;;;;;;;0.57;0.22;;;;;;;;;;4933499;29;20052;-68
2022/11/01 02:34:51;;;;;;;2.45;0.20;;;;;;;;;;4929952;29;20064;-68
2022/11/01 02:37:30;;;;;;;0.50;0.20;;;;;;;;;;4914841;29;20555;-68
2022/11/01 02:40:10;;;;;;;0.65;0.32;;;;;;;;;;4944092;29;20059;-68
2022/11/01 02:42:45;;;;;;;0.57;0.40;;;;;;;;;;4952619;29;20076;-67
2022/11/01 02:45:28;;;;;;;0.22;0.22;;;;;;;;;;4952845;29;20063;-68
2022/11/01 02:48:00;;;;;;;0.22;0.15;;;;;;;;;;4920916;29;20059;-68
2022/11/01 02:50:41;;;;;;;0.10;0.10;;;;;;;;;;4920841;29;20628;-68
2022/11/01 02:53:12;;;;;;;0.22;0.10;;;;;;;;;;4952491;29;20067;-68
2022/11/01 02:55:43;;;;;;;0.35;0.20;;;;;;;;;;4952715;29;20059;-68
2022/11/01 02:58:24;;;;;;;0.10;0.10;;;;;;;;;;4937218;29;20415;-68
2022/11/01 03:00:55;;;;;;;0.75;0.20;;;;;;;;;;4955332;28;20082;-68
2022/11/01 03:03:34;;;;;;;;;;;;;;;;;;4955811;28;20766;-67
2022/11/01 03:06:07;;;;;;;0.85;0.13;;;;;;;;;;5014277;28;19920;-68
2022/11/01 03:08:52;;;;;;;0.30;0.20;;;;;;;;;;5071205;28;20067;-68
2022/11/01 03:11:43;;;;;;;0.88;0.35;;;;;;;;;;5111029;28;20036;-67
2022/11/01 03:14:31;;;;;;;0.75;0.30;;;;;;;;;;5077032;28;20048;-67
2022/11/01 03:17:25;;;;;;;0.30;0.20;;;;;;;;;;5069880;28;20052;-68
2022/11/01 03:19:58;;;;;;;0.88;0.28;;;;;;;;;;5043484;28;20044;-67
2022/11/01 03:22:30;;;;;;;1.48;0.30;;;;;;;;;;5040232;28;20060;-68
2022/11/01 03:28:22;;;;;;;0.20;0.13;;;;;;;;;;5030022;28;20049;-68
2022/11/01 03:31:09;;;;;;;0.43;0.10;;;;;;;;;;5029969;28;20070;-68
2022/11/01 03:33:56;;;;;;;1.50;0.30;;;;;;;;;;5030023;28;20045;-68
2022/11/01 03:36:37;;;;;;;0.40;0.20;;;;;;;;;;5030042;28;20061;-68
2022/11/01 03:39:22;;;;;;;0.35;0.35;;;;;;;;;;5030003;28;20456;-68
2022/11/01 03:41:54;;;;;;;;;;;;;;;;;;5010331;28;20641;-68
2022/11/01 03:44:26;;;;;;;1.00;0.30;;;;;;;;;;5010013;28;19921;-68
2022/11/01 03:46:57;;;;;;;0.60;0.30;;;;;;;;;;4962832;28;20058;-68
2022/11/01 03:49:27;;;;;;;1.50;0.20;;;;;;;;;;5010066;28;20494;-68
2022/11/01 03:51:56;;;;;;;0.85;0.30;;;;;;;;;;4993141;28;20494;-68
2022/11/01 03:54:27;;;;;;;1.50;0.30;;;;;;;;;;5026242;28;20053;-67
2022/11/01 03:56:58;;;;;;;0.22;0.13;;;;;;;;;;5032652;28;20060;-67
2022/11/01 03:59:28;;;;;;;0.43;0.20;;;;;;;;;;5029441;28;20060;-67
2022/11/01 04:01:58;;;;;;;1.15;0.32;;;;;;;;;;5038398;28;20200;-68
2022/11/01 04:04:28;;;;;;;2.15;0.30;;;;;;;;;;5069374;28;20052;-67
2022/11/01 04:06:58;;;;;;;0.90;0.38;;;;;;;;;;5069229;28;20063;-69
2022/11/01 04:09:28;;;;;;;1.10;0.20;;;;;;;;;;5020044;28;20056;-67
2022/11/01 04:11:57;;;;;;;1.95;0.40;;;;;;;;;;5069371;28;20057;-68
2022/11/01 04:22:55;;;;;;;1.00;0.13;;;;;;;;;;5089485;28;20071;-67
2022/11/01 04:25:26;;;;;;;0.32;0.20;;;;;;;;;;5089501;28;20067;-67
2022/11/01 04:27:55;;;;;;;0.20;0.20;;;;;;;;;;5089320;28;20447;-68
2022/11/01 04:30:27;;;;;;;1.20;0.30;;;;;;;;;;5089362;28;20059;-68
2022/11/01 04:32:58;;;;;;;0.60;0.22;;;;;;;;;;5089395;28;20549;-68
2022/11/01 04:35:28;;;;;;;0.60;0.20;;;;;;;;;;5089442;28;20047;-66
2022/11/01 04:37:58;;;;;;;0.50;0.40;;;;;;;;;;5108663;28;20396;-67
2022/11/01 04:40:29;;;;;;;1.60;1.15;;;;;;;;;;5112081;28;20044;-68
2022/11/01 04:42:59;;;;;;;0.85;0.20;;;;;;;;;;5076765;28;20062;-68
2022/11/01 04:45:29;;;;;;;2.40;0.40;;;;;;;;;;5111869;28;20051;-67
2022/11/01 04:48:15;;;;;;;1.67;0.38;;;;;;;;;;5112059;28;20051;-68
2022/11/01 04:50:46;;;;;;;3.00;0.20;;;;;;;;;;5111850;28;20047;-68
2022/11/01 04:53:16;;;;;;;3.75;0.30;;;;;;;;;;5111892;28;20050;-68
2022/11/01 04:55:46;;;;;;;1.23;0.30;;;;;;;;;;5092674;28;20060;-70
2022/11/01 04:58:15;;;;;;;1.25;0.30;;;;;;;;;;5112004;28;20048;-68
2022/11/01 05:00:45;;;;;;;2.42;0.20;;;;;;;;;;5111926;28;20039;-68
2022/11/01 05:03:15;;;;;;;3.15;0.40;;;;;;;;;;5111831;28;20046;-68
2022/11/01 05:05:45;;;;;;;1.70;0.40;;;;;;;;;;5111783;28;20046;-67
2022/11/01 05:08:15;;;;;;;3.08;0.30;;;;;;;;;;5092493;28;20052;-67
2022/11/01 05:10:45;;;;;;;1.13;0.28;;;;;;;;;;5111866;28;20486;-68
2022/11/01 05:13:15;;;;;;;1.00;0.35;;;;;;;;;;5048120;28;20440;-68
2022/11/01 05:15:45;;;;;;;1.77;0.50;;;;;;;;;;5015334;28;20057;-67
2022/11/01 05:18:35;;;;;;;0.35;0.20;;;;;;;;;;5015114;28;20057;-67
2022/11/01 05:21:05;;;;;;;0.98;0.30;;;;;;;;;;5015862;28;20059;-69
2022/11/01 05:23:35;;;;;;;1.58;0.30;;;;;;;;;;5048732;28;20045;-67
2022/11/01 05:26:05;;;;;;;1.00;0.43;;;;;;;;;;5048359;28;20484;-68
2022/11/01 05:28:35;;;;;;;2.05;0.30;;;;;;;;;;4979461;28;20056;-67
2022/11/01 05:31:06;;;;;;;3.58;0.30;;;;;;;;;;5028611;28;20055;-67
2022/11/01 05:33:36;;;;;;;1.88;0.32;;;;;;;;;;4963181;28;20072;-67
2022/11/01 05:36:06;;;;;;;2.30;0.40;;;;;;;;;;5028603;28;20049;-67
2022/11/01 05:38:36;;;;;;;1.05;0.40;;;;;;;;;;5028535;28;20057;-67
2022/11/01 05:41:06;;;;;;;3.28;0.35;;;;;;;;;;5028628;28;20489;-67
2022/11/01 05:43:36;;;;;;;1.45;0.47;;;;;;;;;;4995478;28;20072;-67
2022/11/01 05:46:06;;;;;;;1.88;0.40;;;;;;;;;;4979299;28;20067;-67
2022/11/01 05:48:37;;;;;;;1.58;0.45;;;;;;;;;;5028485;28;20046;-67
2022/11/01 05:51:07;;;;;;;2.92;0.25;;;;;;;;;;5064911;28;20060;-67
2022/11/01 05:53:37;;;;;;;1.27;0.45;;;;;;;;;;5088536;28;20052;-66
2022/11/01 05:56:06;;;;;;;0.93;0.45;;;;;;;;;;5039834;28;20048;-67
2022/11/01 05:58:36;;;;;;;2.15;0.60;;;;;;;;;;5092065;28;20051;-67
2022/11/01 06:01:07;;;;;;;1.80;0.90;;;;;;;;;;5092168;28;20044;-67
2022/11/01 06:03:38;;;;;;;1.83;0.80;;;;;;;;;;5092050;28;20067;-67
2022/11/01 06:06:08;;;;;;;3.22;0.50;;;;;;;;;;5027338;28;20044;-67
2022/11/01 06:08:39;;;;;;;2.83;0.50;;;;;;;;;;5051383;28;20045;-67
2022/11/01 06:11:10;;;;;;;5.60;0.65;;;;;;;;;;5051604;28;20065;-67
2022/11/01 06:13:41;;;;;;;1.65;0.50;;;;;;;;;;5051540;28;20060;-67
2022/11/01 06:16:11;;;;;;;1.52;0.43;;;;;;;;;;5051598;28;20045;-67
2022/11/01 06:18:42;;;;;;;1.85;0.43;;;;;;;;;;5051346;28;20061;-67
2022/11/01 06:21:12;;;;;;;2.90;0.88;;;;;;;;;;5018050;28;20053;-67
2022/11/01 06:23:46;;;;;;;5.75;0.65;;;;;;;;;;5001776;28;20049;-67
2022/11/01 06:26:17;;;;;;;7.47;0.40;;;;;;;;;;5011002;28;20058;-66
2022/11/01 06:28:47;;;;;;;2.00;0.50;;;;;;;;;;5011438;28;20061;-67
2022/11/01 06:31:18;;;;;;;2.67;0.40;;;;;;;;;;5011451;28;20062;-67
2022/11/01 06:33:50;;;;;;;0.85;0.45;;;;;;;;;;4995140;28;20050;-66
2022/11/01 06:36:21;;;;;;;;;;;;;;;;;;5012039;28;20060;-67
2022/11/01 06:38:51;;;;;;;1.20;0.38;;;;;;;;;;5011067;28;19929;-68
2022/11/01 06:41:21;;;;;;;2.72;0.30;;;;;;;;;;5011533;28;20061;-67
2022/11/01 06:43:51;;;;;;;0.45;0.20;;;;;;;;;;5011305;28;20061;-68
2022/11/01 06:46:21;;;;;;;0.82;0.28;;;;;;;;;;5004782;28;20069;-67
2022/11/01 06:48:50;;;;;;;1.30;0.30;;;;;;;;;;5031040;28;20080;-67
2022/11/01 06:51:21;;;;;;;3.25;0.77;;;;;;;;;;5031223;28;20644;-67
2022/11/01 06:53:50;;;;;;;5.05;0.45;;;;;;;;;;5014342;28;20053;-67
2022/11/01 06:56:20;;;;;;;2.58;0.50;;;;;;;;;;5026966;28;20060;-67
2022/11/01 06:58:50;;;;;;;3.65;0.45;;;;;;;;;;5030864;28;20068;-67
2022/11/01 07:01:21;;;;;;;0.50;0.30;;;;;;;;;;5050956;28;20049;-67
2022/11/01 07:03:51;;;;;;;2.15;0.47;;;;;;;;;;5060108;28;20064;-67
2022/11/01 07:06:27;;;;;;;0.63;0.52;;;;;;;;;;5050064;28;20060;-67
2022/11/01 07:09:00;;;;;;;5.05;0.68;;;;;;;;;;5050577;28;20049;-66
2022/11/01 07:11:30;;;;;;;2.60;0.60;;;;;;;;;;5050523;28;20157;-67
2022/11/01 07:14:00;;;;;;;3.17;1.05;;;;;;;;;;5050333;28;20564;-67
2022/11/01 07:16:31;;;;;;;2.17;0.68;;;;;;;;;;5033631;28;20497;-67
2022/11/01 07:19:02;;;;;;;2.33;0.40;;;;;;;;;;5049822;28;20045;-67
2022/11/01 07:21:32;;;;;;;2.70;0.70;;;;;;;;;;5050185;28;20056;-66
2022/11/01 07:24:02;;;;;;;5.72;0.90;;;;;;;;;;5049907;28;20535;-67
2022/11/01 07:26:32;;;;;;;5.07;0.85;;;;;;;;;;5016922;28;20064;-67
2022/11/01 07:29:02;;;;;;;4.38;0.52;;;;;;;;;;5050083;28;20060;-68
2022/11/01 07:31:32;;;;;;;2.45;0.47;;;;;;;;;;5050122;28;20061;-66
2022/11/01 07:34:03;;;;;;;3.20;0.60;;;;;;;;;;5017037;28;20053;-67
2022/11/01 07:36:33;;;;;;;1.73;0.35;;;;;;;;;;5049956;28;20056;-67
2022/11/01 07:39:03;;;;;;;5.63;1.02;;;;;;;;;;5066182;28;20057;-67
2022/11/01 07:41:33;;;;;;;3.95;0.95;;;;;;;;;;5049839;28;20482;-67
2022/11/01 07:44:03;;;;;;;6.07;0.65;;;;;;;;;;5043482;28;20048;-67
2022/11/01 07:46:33;;;;;;;1.75;0.50;;;;;;;;;;5069749;28;20055;-67
2022/11/01 07:49:02;;;;;;;2.65;0.30;;;;;;;;;;5069552;28;20056;-67
2022/11/01 07:51:32;;;;;;;2.55;0.50;;;;;;;;;;5069604;28;20507;-67
2022/11/01 07:54:03;;;;;;;9.90;1.08;;;;;;;;;;5037408;28;20053;-66
2022/11/01 07:56:33;;;;;;;3.97;0.40;;;;;;;;;;5069587;28;20060;-66
2022/11/01 07:59:03;;;;;;;0.80;0.32;;;;;;;;;;5036802;28;20049;-66
2022/11/01 08:01:33;;;;;;;6.38;0.80;;;;;;;;;;5088712;28;20071;-67
2022/11/01 08:04:03;;;;;;;6.13;0.85;;;;;;;;;;5111409;28;20055;-68
2022/11/01 08:06:33;;;;;;;6.03;0.70;;;;;;;;;;5112323;28;20040;-67
2022/11/01 08:09:03;;;;;;;4.30;1.00;;;;;;;;;;5093447;28;20090;-66
2022/11/01 08:11:32;;;;;;;1.38;0.40;;;;;;;;;;5093251;28;20062;-67
2022/11/01 08:14:02;;;;;;;4.88;0.82;;;;;;;;;;5076441;28;20059;-67
2022/11/01 08:16:36;;;;;;;1.08;0.28;;;;;;;;;;5076205;28;20056;-67
2022/11/01 08:19:06;;;;;;;2.40;0.70;;;;;;;;;;5111766;28;20048;-66
2022/11/01 08:21:36;;;;;;;2.33;0.52;;;;;;;;;;5093103;28;20048;-67
2022/11/01 08:24:06;;;;;;;4.75;0.63;;;;;;;;;;5093118;28;20063;-67
2022/11/01 08:26:36;;;;;;;3.47;0.82;;;;;;;;;;5089017;28;20056;-67
2022/11/01 08:29:06;;;;;;;5.90;0.82;;;;;;;;;;5055730;28;20060;-67
2022/11/01 08:31:40;;;;;;;3.30;0.70;;;;;;;;;;5089360;28;20415;-66
2022/11/01 08:34:11;;;;;;;2.65;0.70;;;;;;;;;;5056383;28;20526;-66
2022/11/01 08:36:45;;;;;;;6.78;0.65;;;;;;;;;;5089396;28;20048;-67
2022/11/01 08:39:15;;;;;;;4.78;0.88;;;;;;;;;;5022468;28;20052;-67
2022/11/01 08:41:48;;;;;;;1.77;1.02;;;;;;;;;;5055702;28;20063;-67
2022/11/01 08:44:19;;;;;;;3.85;0.65;;;;;;;;;;5089233;28;20527;-67
2022/11/01 08:46:53;;;;;;;2.67;1.20;;;;;;;;;;5055285;28;20171;-67
2022/11/01 08:49:23;;;;;;;2.13;0.45;;;;;;;;;;5022468;28;20526;-67
2022/11/01 08:51:53;;;;;;;3.03;0.40;;;;;;;;;;5055330;28;20082;-67
2022/11/01 08:54:24;;;;;;;1.30;0.40;;;;;;;;;;5089221;28;20044;-67
2022/11/01 08:56:53;;;;;;;1.42;0.43;;;;;;;;;;5088950;28;20059;-67
2022/11/01 08:59:23;;;;;;;4.97;0.68;;;;;;;;;;5089091;28;20412;-67
2022/11/01 09:01:53;;;;;;;4.13;0.55;;;;;;;;;;5088839;28;20051;-67
2022/11/01 09:04:23;;;;;;;5.72;0.47;;;;;;;;;;5101880;28;20055;-67
2022/11/01 09:06:53;;;;;;;3.13;0.65;;;;;;;;;;5111693;28;20040;-67
2022/11/01 09:09:23;;;;;;;3.75;0.82;;;;;;;;;;5111863;28;20047;-68
2022/11/01 09:11:53;;;;;;;0.85;0.40;;;;;;;;;;5092169;28;20058;-67
2022/11/01 09:14:25;;;;;;;4.68;0.52;;;;;;;;;;5076788;28;20059;-67
2022/11/01 09:16:55;;;;;;;4.88;1.15;;;;;;;;;;5111720;28;20509;-67
2022/11/01 09:19:25;;;;;;;26.30;7.30;;;;;;;;;;5092472;28;20056;-67
2022/11/01 09:21:55;;;;;;;6.07;2.15;;;;;;;;;;5111598;28;20402;-67
2022/11/01 09:24:25;;;;;;;27.48;9.45;;;;;;;;;;5092614;28;20060;-67
2022/11/01 09:26:54;;;;;;;11.85;4.72;;;;;;;;;;5076290;28;20059;-66
2022/11/01 09:29:24;;;;;;;9.65;1.58;;;;;;;;;;5112603;28;20047;-67
2022/11/01 09:31:54;;;;;;;7.30;1.20;;;;;;;;;;5115326;28;20048;-66
2022/11/01 09:34:25;;;;;;;3.72;0.82;;;;;;;;;;5115530;28;20055;-68
2022/11/01 09:36:55;;;;;;;2.17;0.63;;;;;;;;;;5115381;28;20117;-68
2022/11/01 09:39:26;;;;;;;5.50;0.80;;;;;;;;;;5079111;28;20055;-67
2022/11/01 09:42:03;;;;;;;4.80;0.95;;;;;;;;;;5115142;28;20044;-68
2022/11/01 09:44:42;;;;;;;7.95;1.00;;;;;;;;;;5114247;28;20047;-67
2022/11/01 09:47:19;;;;;;;3.67;0.88;;;;;;;;;;5114839;28;20035;-68
2022/11/01 09:50:12;;;;;;;3.75;0.80;;;;;;;;;;5115051;28;20489;-68
2022/11/01 09:52:42;;;;;;;4.80;0.70;;;;;;;;;;5092057;28;20063;-68
2022/11/01 09:55:15;;;;;;;6.13;0.88;;;;;;;;;;5092202;28;20056;-67
2022/11/01 09:58:03;;;;;;;2.55;0.50;;;;;;;;;;5043738;28;20499;-68
2022/11/01 10:00:38;;;;;;;3.95;0.52;;;;;;;;;;5092043;28;20048;-68
2022/11/01 10:03:21;;;;;;;2.88;0.80;;;;;;;;;;5058235;28;20063;-67
2022/11/01 10:06:16;;;;;;;1.80;0.57;;;;;;;;;;5091558;28;20064;-68
2022/11/01 10:09:15;;;;;;;2.28;0.52;;;;;;;;;;5091885;28;20495;-68
2022/11/01 10:12:15;;;;;;;6.65;1.42;;;;;;;;;;5091985;28;20458;-68
2022/11/01 10:15:03;;;;;;;7.63;1.75;;;;;;;;;;5051398;28;20056;-68
2022/11/01 10:17:42;;;;;;;4.75;0.93;;;;;;;;;;5011564;28;20394;-68
2022/11/01 10:20:24;;;;;;;5.28;1.33;;;;;;;;;;5027867;28;20505;-68
2022/11/01 10:22:54;;;;;;;2.65;0.52;;;;;;;;;;5031256;28;20064;-68
2022/11/01 10:25:33;;;;;;;2.00;0.60;;;;;;;;;;5031472;28;20062;-68
2022/11/01 10:28:20;;;;;;;1.15;0.28;;;;;;;;;;5011066;28;20050;-68
2022/11/01 10:31:01;;;;;;;2.55;0.77;;;;;;;;;;4976674;28;20457;-67
2022/11/01 10:33:37;;;;;;;4.43;1.08;;;;;;;;;;5031074;28;20060;-67
2022/11/01 10:36:16;;;;;;;9.95;1.67;;;;;;;;;;5029030;28;20041;-68
2022/11/01 10:38:50;;;;;;;6.38;0.88;;;;;;;;;;5011354;28;20062;-67
2022/11/01 10:42:09;;;;;;;6.47;1.17;;;;;;;;;;4990725;28;20050;-67
2022/11/01 10:44:45;;;;;;;4.28;0.68;;;;;;;;;;4959536;28;20057;-67
2022/11/01 10:47:20;;;;;;;1.63;0.50;;;;;;;;;;4991712;28;20053;-67
2022/11/01 10:49:53;;;;;;;5.30;0.52;;;;;;;;;;5010579;28;20062;-67
2022/11/01 10:52:49;;;;;;;4.68;0.80;;;;;;;;;;5043908;28;20056;-67
2022/11/01 10:55:28;;;;;;;6.65;1.52;;;;;;;;;;5050943;28;20064;-67
2022/11/01 10:58:27;;;;;;;5.70;1.33;;;;;;;;;;5050720;28;20049;-68
2022/11/01 11:00:58;;;;;;;4.00;1.15;;;;;;;;;;5010865;28;20061;-67
2022/11/01 11:03:30;;;;;;;6.97;1.10;;;;;;;;;;5011025;28;20066;-67
2022/11/01 11:06:04;;;;;;;5.38;1.00;;;;;;;;;;5010953;28;20054;-67
2022/11/01 11:08:37;;;;;;;5.47;1.20;;;;;;;;;;5011009;28;20575;-68
2022/11/01 11:11:14;;;;;;;8.52;1.42;;;;;;;;;;5010648;28;20071;-67
2022/11/01 11:13:52;;;;;;;6.07;1.40;;;;;;;;;;5010815;28;20413;-67
2022/11/01 11:16:52;;;;;;;6.43;0.80;;;;;;;;;;5010651;28;20057;-67
2022/11/01 11:19:32;;;;;;;1.77;0.70;;;;;;;;;;5007391;28;20402;-67
2022/11/01 11:22:07;;;;;;;5.97;0.80;;;;;;;;;;5030441;28;20060;-67
2022/11/01 11:24:39;;;;;;;10.50;1.33;;;;;;;;;;4997823;28;20065;-67
2022/11/01 11:27:24;;;;;;;17.42;3.30;;;;;;;;;;5030234;28;20158;-66
2022/11/01 11:29:57;;;;;;;10.70;1.55;;;;;;;;;;4997330;28;20073;-66
2022/11/01 11:32:34;;;;;;;9.10;1.42;;;;;;;;;;5030168;28;20064;-66
2022/11/01 11:35:15;;;;;;;8.15;1.55;;;;;;;;;;5030180;28;20072;-66
2022/11/01 11:38:03;;;;;;;4.53;0.70;;;;;;;;;;5052540;28;20055;-67
2022/11/01 11:40:39;;;;;;;10.95;2.30;;;;;;;;;;5090203;28;20039;-66
2022/11/01 11:43:30;;;;;;;4.90;0.90;;;;;;;;;;5090030;28;20052;-66
2022/11/01 11:46:07;;;;;;;6.95;1.40;;;;;;;;;;5090153;28;20052;-66
2022/11/01 11:49:00;;;;;;;4.57;1.50;;;;;;;;;;5089768;28;20419;-66
2022/11/01 11:51:39;;;;;;;8.25;0.80;;;;;;;;;;5090053;28;20052;-66
2022/11/01 11:54:15;;;;;;;4.53;1.30;;;;;;;;;;5058192;28;20056;-67
2022/11/01 11:56:45;;;;;;;2.03;0.63;;;;;;;;;;5069289;27;20070;-66
2022/11/01 11:59:34;;;;;;;4.30;0.70;;;;;;;;;;5082964;28;20063;-67
2022/11/01 12:02:14;;;;;;;4.00;1.20;;;;;;;;;;5079692;28;20043;-67
2022/11/01 12:04:57;;;;;;;3.90;1.20;;;;;;;;;;5078826;28;20044;-67
2022/11/01 12:07:48;;;;;;;6.88;1.52;;;;;;;;;;5038452;28;20538;-66
2022/11/01 12:10:37;;;;;;;3.97;1.23;;;;;;;;;;5086612;28;20115;-68
2022/11/01 12:13:40;;;;;;;4.25;1.00;;;;;;;;;;5076445;28;20048;-66
2022/11/01 12:16:15;;;;;;;3.22;0.80;;;;;;;;;;5075040;28;20040;-67
2022/11/01 12:18:49;;;;;;;3.88;0.73;;;;;;;;;;5047173;28;21799;-68
2022/11/01 12:21:25;;;;;;;4.25;0.65;;;;;;;;;;5052863;28;20056;-67
2022/11/01 12:24:17;;;;;;;4.75;0.68;;;;;;;;;;5086999;28;20089;-67
2022/11/01 12:26:51;;;;;;;3.15;0.82;;;;;;;;;;5047737;28;20041;-66
2022/11/01 12:29:29;;;;;;;3.33;1.08;;;;;;;;;;5032608;28;20559;-65
2022/11/01 12:32:30;;;;;;;4.00;0.28;;;;;;;;;;5069422;28;20052;-66
2022/11/01 12:35:06;;;;;;;4.32;0.63;;;;;;;;;;5073625;28;20032;-66
2022/11/01 12:37:51;;;;;;;5.35;0.85;;;;;;;;;;5067085;28;20048;-66
2022/11/01 12:40:27;;;;;;;2.97;0.82;;;;;;;;;;5045288;28;20052;-66
2022/11/01 12:43:10;;;;;;;117.63;40.05;;;;;;;;;;5077861;28;20045;-68
2022/11/01 12:45:51;;;;;;;10.10;3.25;;;;;;;;;;5071700;28;20078;-68
2022/11/01 12:48:36;;;;;;;6.75;2.42;;;;;;;;;;5052183;28;20053;-67
2022/11/01 12:51:16;;;;;;;2.90;1.17;;;;;;;;;;5077762;28;20152;-68
2022/11/01 12:53:59;;;;;;;5.95;0.90;;;;;;;;;;5078699;28;20420;-67
2022/11/01 12:56:29;;;;;;;5.78;1.80;;;;;;;;;;5079904;28;20055;-65
2022/11/01 12:58:59;;;;;;;2.42;0.60;;;;;;;;;;5077573;28;20048;-65
2022/11/01 13:01:53;;;;;;;2.47;0.60;;;;;;;;;;5078455;28;20059;-68
2022/11/01 13:04:30;;;;;;;0.85;0.40;;;;;;;;;;5091991;27;20059;-65
2022/11/01 13:07:08;;;;;;;3.10;0.45;;;;;;;;;;5130522;27;20490;-67
2022/11/01 13:10:12;;;;;;;8.18;1.08;;;;;;;;;;5072524;28;20060;-65
2022/11/01 13:12:56;;;;;;;5.43;0.80;;;;;;;;;;5062753;28;20156;-66
2022/11/01 13:15:45;;;;;;;12.25;4.05;;;;;;;;;;5052848;28;20063;-65
2022/11/01 13:18:40;;;;;;;9.07;2.70;;;;;;;;;;5005116;28;20049;-67
2022/11/01 13:21:14;;;;;;;3.83;1.30;;;;;;;;;;5052855;28;20064;-66
2022/11/01 13:23:52;;;;;;;13.05;4.32;;;;;;;;;;5052855;28;20544;-66
2022/11/01 13:26:32;;;;;;;4.55;1.98;;;;;;;;;;5052674;28;20085;-65
2022/11/01 13:29:11;;;;;;;6.60;2.50;;;;;;;;;;5052729;28;20076;-66
2022/11/01 13:32:00;;;;;;;;;;;;;;;;;;5053016;28;20063;-66
2022/11/01 13:34:55;;;;;;;2.50;0.95;;;;;;;;;;5052452;28;19921;-66
2022/11/01 13:37:45;;;;;;;3.47;1.20;;;;;;;;;;5060484;28;20048;-66
2022/11/01 13:40:33;;;;;;;1.92;0.73;;;;;;;;;;5052529;28;20060;-67
2022/11/01 13:43:07;;;;;;;1.38;0.70;;;;;;;;;;5035423;28;20598;-68
2022/11/01 13:45:55;;;;;;;4.57;0.88;;;;;;;;;;5052216;28;20048;-67
2022/11/01 13:49:03;;;;;;;4.05;0.95;;;;;;;;;;5063034;28;20071;-68
2022/11/01 13:51:49;;;;;;;4.05;0.40;;;;;;;;;;5115374;28;20503;-66
2022/11/01 13:54:22;;;;;;;3.80;0.90;;;;;;;;;;5062895;28;20059;-68
2022/11/01 13:57:15;;;;;;;2.90;0.77;;;;;;;;;;5062753;28;20126;-67
2022/11/01 13:59:56;;;;;;;2.85;0.90;;;;;;;;;;5115133;28;20051;-67
2022/11/01 14:02:26;;;;;;;1.23;0.63;;;;;;;;;;5079091;28;20487;-67
2022/11/01 14:05:08;;;;;;;4.28;0.85;;;;;;;;;;5115011;28;20051;-67
2022/11/01 14:08:05;;;;;;;2.13;0.70;;;;;;;;;;5119690;27;20050;-68
2022/11/01 14:10:36;;;;;;;1.38;0.30;;;;;;;;;;5123423;27;20529;-66
2022/11/01 14:13:13;;;;;;;6.00;1.42;;;;;;;;;;5117406;27;20404;-67
2022/11/01 14:16:00;;;;;;;11.50;3.50;;;;;;;;;;5123197;27;20032;-68
2022/11/01 14:19:02;;;;;;;2.95;0.60;;;;;;;;;;5089446;27;20051;-67
2022/11/01 14:21:47;;;;;;;1.38;0.70;;;;;;;;;;5066440;28;20044;-65
2022/11/01 14:24:27;;;;;;;1.27;0.45;;;;;;;;;;5066656;28;20056;-65
2022/11/01 14:27:18;;;;;;;3.63;0.80;;;;;;;;;;5102210;28;20055;-66
2022/11/01 14:29:52;;;;;;;4.10;1.00;;;;;;;;;;5069747;28;20562;-69
2022/11/01 14:32:27;;;;;;;7.47;0.90;;;;;;;;;;5072882;28;20052;-67
2022/11/01 14:35:24;;;;;;;3.30;0.65;;;;;;;;;;5088913;28;20552;-68
2022/11/01 14:38:01;;;;;;;6.53;1.10;;;;;;;;;;5050687;28;20052;-66
2022/11/01 14:40:42;;;;;;;5.40;0.85;;;;;;;;;;5036070;28;20520;-66
2022/11/01 14:43:37;;;;;;;3.53;0.50;;;;;;;;;;5049178;28;20053;-64
2022/11/01 14:46:15;;;;;;;3.13;0.63;;;;;;;;;;5047448;28;20064;-68
2022/11/01 14:49:06;;;;;;;2.67;0.30;;;;;;;;;;5008755;28;20492;-68
2022/11/01 14:52:10;;;;;;;2.97;0.43;;;;;;;;;;5046347;28;20040;-66
2022/11/01 14:54:50;;;;;;;2.47;0.50;;;;;;;;;;4963201;28;20054;-67
2022/11/01 14:57:28;;;;;;;1.92;0.55;;;;;;;;;;4991427;28;20054;-67
2022/11/01 14:59:59;;;;;;;2.42;0.45;;;;;;;;;;4974220;28;20050;-67
2022/11/01 15:02:30;;;;;;;2.85;0.57;;;;;;;;;;4955526;28;20058;-65
2022/11/01 15:05:02;;;;;;;2.92;0.70;;;;;;;;;;4980696;28;20061;-67
2022/11/01 15:07:39;;;;;;;2.30;0.38;;;;;;;;;;4952945;28;20055;-63
2022/11/01 15:10:12;;;;;;;1.73;0.40;;;;;;;;;;4940255;28;20054;-68
2022/11/01 15:12:49;;;;;;;2.05;0.52;;;;;;;;;;4991192;28;20062;-63
2022/11/01 15:15:29;;;;;;;4.10;0.65;;;;;;;;;;4983407;28;20054;-63
2022/11/01 15:18:04;;;;;;;5.90;0.30;;;;;;;;;;4987975;28;20046;-65
2022/11/01 15:20:39;;;;;;;5.45;0.80;;;;;;;;;;4939469;28;20055;-67
2022/11/01 15:23:14;;;;;;;1.70;0.73;;;;;;;;;;4971865;28;20058;-65
2022/11/01 15:25:56;;;;;;;1.50;0.43;;;;;;;;;;4971962;28;20525;-65
2022/11/01 15:28:40;;;;;;;1.40;0.43;;;;;;;;;;4923857;28;20051;-65
2022/11/01 15:31:11;;;;;;;1.67;0.40;;;;;;;;;;4990869;28;20053;-66
2022/11/01 15:33:57;;;;;;;2.67;0.60;;;;;;;;;;5010827;28;20256;-65
2022/11/01 15:36:34;;;;;;;3.38;0.70;;;;;;;;;;5011745;28;20532;-65
2022/11/01 15:39:27;;;;;;;2.55;0.30;;;;;;;;;;5050253;28;20057;-66
2022/11/01 15:41:57;;;;;;;4.93;0.55;;;;;;;;;;5050267;28;20068;-65
2022/11/01 15:44:29;;;;;;;2.05;0.40;;;;;;;;;;5050239;28;20056;-65
2022/11/01 15:47:05;;;;;;;3.13;0.50;;;;;;;;;;5033244;28;20396;-67
2022/11/01 15:50:04;;;;;;;1.27;0.50;;;;;;;;;;5016844;28;20045;-63